Time;durP1;ratioP1;P1;durP2;ratioP2;P2;SDS_P1;SDS_P2;PMS_P1;PMS_P2;Temp;Humidity;BMP_temperature;BMP_pressure;BME280_temperature;BME280_humidity;BME280_pressure;Samples;Min_cycle;Max_cycle;Signal;HPM_P1;HPM_P2
2022/08/29 00:00:22;;;;;;;9.40;4.20;;;;;;;11.70;100.00;102388.69;5093726;28;20031;-77
2022/08/29 00:02:50;;;;;;;8.07;4.60;;;;;;;11.63;100.00;102375.81;5093659;28;20040;-76
2022/08/29 00:05:18;;;;;;;8.02;4.03;;;;;;;11.60;100.00;102383.19;5093999;28;20042;-76
2022/08/29 00:07:44;;;;;;;7.00;4.00;;;;;;;11.56;100.00;102379.88;5093406;28;20064;-76
2022/08/29 00:10:09;;;;;;;8.00;4.07;;;;;;;11.54;100.00;102380.91;5093817;28;20031;-76
2022/08/29 00:12:35;;;;;;;9.20;4.53;;;;;;;11.48;100.00;102376.91;5093175;28;20028;-76
2022/08/29 00:15:02;;;;;;;6.97;4.22;;;;;;;11.47;100.00;102384.03;5093557;28;20028;-77
2022/08/29 00:17:27;;;;;;;7.28;4.32;;;;;;;11.44;100.00;102384.25;5093502;28;20044;-77
2022/08/29 00:19:53;;;;;;;10.32;4.68;;;;;;;11.41;100.00;102381.78;5093082;28;20475;-76
2022/08/29 00:22:18;;;;;;;9.00;4.82;;;;;;;11.40;100.00;102382.75;5093203;28;20085;-76
2022/08/29 00:24:44;;;;;;;10.07;4.38;;;;;;;11.37;100.00;102387.44;5092589;28;20127;-77
2022/08/29 00:27:09;;;;;;;7.82;4.18;;;;;;;11.34;100.00;102377.84;5074959;28;20110;-76
2022/08/29 00:29:34;;;;;;;8.40;4.28;;;;;;;11.32;100.00;102381.59;5092610;28;20483;-77
2022/08/29 00:32:00;;;;;;;6.60;3.92;;;;;;;11.27;100.00;102381.88;5093131;28;20171;-76
2022/08/29 00:34:25;;;;;;;7.45;3.67;;;;;;;11.23;100.00;102381.25;5093139;28;20070;-76
2022/08/29 00:36:51;;;;;;;7.45;3.85;;;;;;;11.21;100.00;102388.50;5074953;28;20036;-77
2022/08/29 00:39:16;;;;;;;7.40;3.60;;;;;;;11.19;100.00;102384.25;5092827;28;20036;-77
2022/08/29 00:41:42;;;;;;;7.35;3.92;;;;;;;11.17;100.00;102388.81;5092663;28;20039;-77
2022/08/29 00:44:07;;;;;;;6.68;3.42;;;;;;;11.12;100.00;102375.78;5092863;28;20102;-77
2022/08/29 00:46:38;;;;;;;5.88;3.28;;;;;;;11.10;100.00;102365.25;5092441;28;20040;-80
2022/08/29 00:49:10;;;;;;;11.88;3.28;;;;;;;11.11;100.00;102374.13;5092954;28;20101;-76
2022/08/29 00:51:36;;;;;;;6.03;3.25;;;;;;;11.10;100.00;102378.56;5092252;28;20031;-78
2022/08/29 00:54:08;;;;;;;6.55;3.25;;;;;;;11.08;100.00;102382.31;5092889;28;20024;-77
2022/08/29 00:56:38;;;;;;;5.00;3.10;;;;;;;11.08;100.00;102372.50;5092626;28;20078;-80
2022/08/29 00:59:11;;;;;;;5.63;2.78;;;;;;;11.08;100.00;102377.00;5092374;28;20051;-77
2022/08/29 01:01:38;;;;;;;6.65;2.97;;;;;;;11.09;100.00;102381.34;5074009;28;20089;-76
2022/08/29 01:04:04;;;;;;;5.80;3.10;;;;;;;11.09;100.00;102382.22;5092396;28;20055;-76
2022/08/29 01:06:31;;;;;;;4.57;2.50;;;;;;;11.06;100.00;102381.53;5092363;28;20060;-77
2022/08/29 01:08:56;;;;;;;6.28;3.15;;;;;;;11.06;100.00;102393.06;5091928;28;20043;-76
2022/08/29 01:14:16;;;;;;;4.60;2.90;;;;;;;11.05;100.00;102391.34;5068262;28;20127;-75
2022/08/29 01:16:43;;;;;;;5.13;2.90;;;;;;;11.02;100.00;102388.06;5073743;28;20388;-76
2022/08/29 01:19:17;;;;;;;6.00;2.63;;;;;;;11.00;100.00;102393.50;5092366;28;20104;-75
2022/08/29 01:21:42;;;;;;;7.63;2.97;;;;;;;10.99;100.00;102393.56;5091908;28;20107;-77
2022/08/29 01:24:49;;;;;;;7.05;2.35;;;;;;;10.97;100.00;102392.84;5092606;28;20107;-76
2022/08/29 01:27:17;;;;;;;4.90;2.72;;;;;;;10.94;100.00;102384.09;5092178;28;20089;-76
2022/08/29 01:29:42;;;;;;;3.63;2.47;;;;;;;10.93;100.00;102387.72;5073564;28;20498;-76
2022/08/29 01:32:08;;;;;;;2.83;2.33;;;;;;;10.92;100.00;102390.47;5073998;28;20036;-77
2022/08/29 01:34:33;;;;;;;3.45;2.33;;;;;;;10.92;100.00;102387.81;5092000;28;20510;-77
2022/08/29 01:37:02;;;;;;;5.45;2.58;;;;;;;10.92;100.00;102390.47;5091047;28;20382;-76
2022/08/29 01:39:32;;;;;;;5.70;2.92;;;;;;;10.89;100.00;102388.03;5091967;28;20089;-77
2022/08/29 01:42:02;;;;;;;5.30;2.72;;;;;;;10.88;100.00;102387.19;5091508;28;20028;-76
2022/08/29 01:44:28;;;;;;;4.80;2.40;;;;;;;10.88;100.00;102394.31;5092038;28;20053;-76
2022/08/29 01:46:56;;;;;;;4.35;2.50;;;;;;;10.86;100.00;102385.56;5073299;28;20558;-75
2022/08/29 01:49:23;;;;;;;3.50;2.40;;;;;;;10.85;100.00;102392.72;5092081;28;20023;-76
2022/08/29 01:51:49;;;;;;;6.88;2.33;;;;;;;10.81;100.00;102391.22;5073492;28;20028;-76
2022/08/29 01:54:14;;;;;;;5.43;2.40;;;;;;;10.80;100.00;102386.84;5092054;28;20499;-76
2022/08/29 01:56:44;;;;;;;6.00;2.67;;;;;;;10.81;100.00;102388.56;5091985;28;20036;-76
2022/08/29 01:59:12;;;;;;;3.92;2.28;;;;;;;10.82;100.00;102392.91;5091723;28;20117;-76
2022/08/29 02:01:42;;;;;;;3.78;2.20;;;;;;;10.78;100.00;102391.41;5091784;28;20024;-76
2022/08/29 02:04:08;;;;;;;3.75;2.20;;;;;;;10.77;100.00;102392.38;5073989;28;20036;-76
2022/08/29 02:06:35;;;;;;;4.45;2.70;;;;;;;10.79;100.00;102394.94;5073950;28;20028;-76
2022/08/29 02:09:00;;;;;;;3.95;2.40;;;;;;;10.77;100.00;102385.22;5091324;28;20032;-76
2022/08/29 02:11:26;;;;;;;3.53;2.20;;;;;;;10.76;100.00;102399.50;5057243;28;20379;-77
2022/08/29 02:13:55;;;;;;;3.33;2.30;;;;;;;10.81;100.00;102393.88;5091151;28;20463;-77
2022/08/29 02:16:22;;;;;;;7.18;2.50;;;;;;;10.84;100.00;102385.69;5091654;28;20047;-76
2022/08/29 02:18:48;;;;;;;4.07;1.92;;;;;;;10.83;100.00;102388.44;5090952;28;20044;-76
2022/08/29 02:21:18;;;;;;;2.58;1.90;;;;;;;10.81;100.00;102390.34;5091684;28;20060;-76
2022/08/29 02:23:45;;;;;;;3.17;2.05;;;;;;;10.78;100.00;102396.75;5073309;28;20499;-76
2022/08/29 02:26:11;;;;;;;4.55;2.17;;;;;;;10.77;100.00;102387.03;5091244;28;20131;-76
2022/08/29 02:28:37;;;;;;;6.22;2.80;;;;;;;10.77;100.00;102382.56;5091301;28;20028;-75
2022/08/29 02:31:04;;;;;;;4.78;2.60;;;;;;;10.80;100.00;102381.50;5072772;28;20063;-77
2022/08/29 02:33:30;;;;;;;6.80;3.10;;;;;;;10.84;100.00;102382.13;5091389;28;20062;-76
2022/08/29 02:35:58;;;;;;;6.28;2.55;;;;;;;10.82;100.00;102387.56;5072770;28;20460;-77
2022/08/29 02:38:24;;;;;;;5.30;2.67;;;;;;;10.82;100.00;102386.72;5091477;28;20032;-76
2022/08/29 02:40:50;;;;;;;8.60;2.83;;;;;;;10.79;100.00;102394.94;5091043;28;20480;-77
2022/08/29 02:43:18;;;;;;;8.75;2.50;;;;;;;10.76;100.00;102399.50;5091305;28;20039;-76
2022/08/29 02:45:44;;;;;;;4.85;2.80;;;;;;;10.73;100.00;102396.19;5091432;28;20169;-76
2022/08/29 02:48:11;;;;;;;4.18;2.50;;;;;;;10.69;100.00;102389.34;5091581;28;20036;-76
2022/08/29 02:50:44;;;;;;;3.53;2.33;;;;;;;10.66;100.00;102384.22;5095096;28;20028;-76
2022/08/29 02:53:11;;;;;;;4.53;2.25;;;;;;;10.66;100.00;102385.09;5094628;28;20047;-76
2022/08/29 02:55:37;;;;;;;4.85;2.83;;;;;;;10.65;100.00;102382.53;5059959;28;20032;-76
2022/08/29 02:58:03;;;;;;;7.30;2.78;;;;;;;10.65;100.00;102382.53;5076044;28;20085;-76
2022/08/29 03:00:38;;;;;;;4.85;2.55;;;;;;;10.63;100.00;102385.31;5094860;28;20028;-76
2022/08/29 03:03:03;;;;;;;4.13;2.40;;;;;;;10.61;100.00;102386.34;5094266;28;20101;-76
2022/08/29 03:05:33;;;;;;;7.65;2.80;;;;;;;10.61;100.00;102381.03;5094570;28;20064;-76
2022/08/29 03:07:59;;;;;;;7.38;3.42;;;;;;;10.56;100.00;102384.00;5094163;28;20035;-76
2022/08/29 03:10:25;;;;;;;5.40;2.95;;;;;;;10.55;100.00;102380.50;5094518;28;20036;-76
2022/08/29 03:12:51;;;;;;;4.65;2.50;;;;;;;10.52;100.00;102383.34;5094232;28;20051;-81
2022/08/29 03:15:17;;;;;;;6.57;3.45;;;;;;;10.50;100.00;102379.09;5094509;28;20032;-77
2022/08/29 03:17:43;;;;;;;4.38;2.80;;;;;;;10.44;100.00;102382.16;5094625;28;20059;-78
2022/08/29 03:20:10;;;;;;;4.28;2.35;;;;;;;10.38;100.00;102380.75;5093940;28;20032;-77
2022/08/29 03:22:37;;;;;;;5.43;3.20;;;;;;;10.38;100.00;102378.09;5094432;28;20024;-77
2022/08/29 03:25:04;;;;;;;7.63;3.20;;;;;;;10.37;100.00;102376.38;5093785;28;20035;-77
2022/08/29 03:27:31;;;;;;;6.57;3.38;;;;;;;10.32;100.00;102373.13;5094638;28;20085;-76
2022/08/29 03:29:56;;;;;;;4.90;2.83;;;;;;;10.26;100.00;102373.53;5093966;28;20032;-77
2022/08/29 03:32:23;;;;;;;10.93;4.18;;;;;;;10.23;100.00;102367.44;5094410;28;20044;-76
2022/08/29 03:34:48;;;;;;;6.13;3.60;;;;;;;10.22;100.00;102363.06;5076179;28;20035;-77
2022/08/29 03:37:13;;;;;;;7.50;3.28;;;;;;;10.18;100.00;102360.72;5093529;28;20123;-77
2022/08/29 03:39:39;;;;;;;5.38;3.35;;;;;;;10.13;100.00;102361.00;5093880;28;20027;-77
2022/08/29 03:42:05;;;;;;;5.85;2.80;;;;;;;10.09;100.00;102359.53;5093699;28;20043;-77
2022/08/29 03:44:33;;;;;;;6.53;3.70;;;;;;;10.10;100.00;102360.38;5094303;28;20137;-76
2022/08/29 03:46:58;;;;;;;11.18;4.57;;;;;;;10.09;100.00;102356.84;5093368;28;20106;-77
2022/08/29 03:49:24;;;;;;;8.07;4.50;;;;;;;10.10;100.00;102347.91;5075595;28;20594;-77
2022/08/29 03:51:49;;;;;;;8.10;4.10;;;;;;;10.13;100.00;102352.19;5093672;28;20024;-76
2022/08/29 03:54:15;;;;;;;6.75;3.90;;;;;;;10.11;100.00;102348.78;5075055;28;20199;-77
2022/08/29 03:56:40;;;;;;;5.82;3.60;;;;;;;10.08;100.00;102352.47;5093895;28;20153;-77
2022/08/29 03:59:05;;;;;;;6.38;4.20;;;;;;;10.10;100.00;102355.03;5093282;28;20111;-77
2022/08/29 04:01:31;;;;;;;10.30;4.57;;;;;;;10.11;100.00;102351.44;5074792;28;20032;-77
2022/08/29 04:03:57;;;;;;;9.90;5.03;;;;;;;10.12;100.00;102339.81;5093393;28;20472;-81
2022/08/29 04:06:27;;;;;;;8.45;4.78;;;;;;;10.12;100.00;102340.69;5075292;28;20028;-77
2022/08/29 04:08:53;;;;;;;7.30;4.05;;;;;;;10.12;100.00;102345.16;5093719;28;20024;-77
2022/08/29 04:11:21;;;;;;;7.15;3.92;;;;;;;10.09;100.00;102342.69;5093136;28;20028;-77
2022/08/29 04:13:47;;;;;;;7.57;4.60;;;;;;;10.06;100.00;102349.94;5093321;28;20036;-77
2022/08/29 04:16:22;;;;;;;7.13;4.03;;;;;;;10.05;100.00;102344.69;5074762;28;20050;-76
2022/08/29 04:18:48;;;;;;;7.95;4.30;;;;;;;10.02;100.00;102347.56;5071567;28;20143;-77
2022/08/29 04:21:14;;;;;;;11.05;4.28;;;;;;;10.00;100.00;102345.00;5071187;28;20124;-76
2022/08/29 04:23:40;;;;;;;8.27;4.53;;;;;;;10.00;100.00;102354.75;5072982;28;20036;-76
2022/08/29 04:26:17;;;;;;;6.50;4.00;;;;;;;9.97;100.00;102355.84;5072587;28;20035;-76
2022/08/29 04:28:43;;;;;;;5.50;3.40;;;;;;;9.96;100.00;102361.25;5071383;28;20075;-76
2022/08/29 04:31:18;;;;;;;8.30;3.97;;;;;;;9.93;100.00;102361.41;5054007;28;20082;-76
2022/08/29 04:33:48;;;;;;;6.75;3.47;;;;;;;9.93;100.00;102361.41;5072714;28;20099;-76
2022/08/29 04:36:14;;;;;;;6.30;4.03;;;;;;;9.98;100.00;102373.47;5072397;28;20025;-76
2022/08/29 04:38:40;;;;;;;6.35;3.47;;;;;;;10.04;100.00;102377.56;5072470;28;20035;-76
2022/08/29 04:41:07;;;;;;;5.63;3.78;;;;;;;10.14;100.00;102372.53;5072133;28;20062;-77
2022/08/29 04:43:33;;;;;;;5.55;3.30;;;;;;;10.23;100.00;102371.91;5072364;28;20161;-77
2022/08/29 04:45:59;;;;;;;6.97;3.33;;;;;;;10.34;100.00;102372.09;5072315;28;20059;-76
2022/08/29 04:48:25;;;;;;;9.15;3.88;;;;;;;10.46;100.00;102378.41;5071721;28;20047;-76
2022/08/29 04:50:58;;;;;;;12.82;4.53;;;;;;;10.59;100.00;102379.31;5071142;28;20033;-76
2022/08/29 04:53:24;;;;;;;8.63;4.38;;;;;;;10.71;100.00;102384.78;5072109;28;20032;-76
2022/08/29 04:55:57;;;;;;;7.28;3.75;;;;;;;10.77;100.00;102393.22;5072352;28;20036;-76
2022/08/29 04:58:24;;;;;;;7.05;3.72;;;;;;;10.84;100.00;102387.47;5070191;28;20109;-77
2022/08/29 05:00:50;;;;;;;7.10;3.42;;;;;;;10.91;100.00;102384.31;5072004;28;20365;-76
2022/08/29 05:03:15;;;;;;;13.57;4.45;;;;;;;11.01;100.00;102389.00;5071857;28;20115;-77
2022/08/29 05:05:40;;;;;;;10.13;4.07;;;;;;;11.09;100.00;102389.31;5072257;28;20112;-76
2022/08/29 05:08:06;;;;;;;6.40;3.80;;;;;;;11.18;100.00;102388.72;5070407;28;20024;-77
2022/08/29 05:10:32;;;;;;;8.48;4.28;;;;;;;11.26;100.00;102391.69;5071995;28;20037;-76
2022/08/29 05:12:57;;;;;;;6.60;3.72;;;;;;;11.34;100.00;102400.97;5071127;28;20500;-77
2022/08/29 05:15:22;;;;;;;9.73;4.28;;;;;;;11.39;100.00;102396.16;5071603;28;20032;-76
2022/08/29 05:17:48;;;;;;;8.52;3.97;;;;;;;11.43;100.00;102385.19;5081125;28;20063;-76
2022/08/29 05:20:13;;;;;;;12.32;4.18;;;;;;;11.52;100.00;102399.69;5091424;28;20035;-76
2022/08/29 05:22:40;;;;;;;5.82;3.50;;;;;;;11.58;100.00;102398.41;5073911;28;20056;-76
2022/08/29 05:25:06;;;;;;;10.07;4.15;;;;;;;11.65;100.00;102408.53;5091633;28;20453;-80
2022/08/29 05:27:32;;;;;;;6.95;3.40;;;;;;;11.74;100.00;102407.03;5091952;28;20028;-77
2022/08/29 05:29:58;;;;;;;8.65;3.72;;;;;;;11.83;100.00;102410.88;5073669;28;20373;-78
2022/08/29 05:32:23;;;;;;;8.77;3.58;;;;;;;11.93;100.00;102411.13;5091762;28;20039;-77
2022/08/29 05:34:49;;;;;;;8.75;4.38;;;;;;;12.01;100.00;102414.06;5092131;28;20028;-76
2022/08/29 05:37:18;;;;;;;8.07;3.92;;;;;;;12.09;100.00;102414.38;5091427;28;20040;-77
2022/08/29 05:39:44;;;;;;;5.82;3.67;;;;;;;12.18;100.00;102418.19;5091846;28;20024;-77
2022/08/29 05:42:11;;;;;;;8.35;3.10;;;;;;;12.27;100.00;102416.66;5091373;28;20036;-80
2022/08/29 05:44:38;;;;;;;6.05;3.00;;;;;;;12.34;100.00;102413.44;5091819;28;20338;-79
2022/08/29 05:47:06;;;;;;;6.70;3.58;;;;;;;12.43;100.00;102419.91;5092208;28;20460;-78
2022/08/29 05:49:31;;;;;;;5.97;3.22;;;;;;;12.52;100.00;102413.91;5091518;28;20036;-80
2022/08/29 05:51:59;;;;;;;7.95;3.40;;;;;;;12.62;100.00;102418.56;5091729;28;20034;-78
2022/08/29 05:54:25;;;;;;;8.65;3.70;;;;;;;12.68;100.00;102420.78;5073478;28;20034;-77
2022/08/29 05:56:51;;;;;;;4.90;3.13;;;;;;;12.78;100.00;102424.47;5091878;28;20032;-77
2022/08/29 05:59:18;;;;;;;4.65;3.05;;;;;;;12.86;100.00;102413.22;5091121;28;20057;-78
2022/08/29 06:01:45;;;;;;;5.80;3.45;;;;;;;12.93;100.00;102414.44;5091758;28;20039;-77
2022/08/29 06:04:12;;;;;;;4.65;3.20;;;;;;;13.03;100.00;102418.13;5091336;28;20028;-79
2022/08/29 06:06:39;;;;;;;4.53;3.30;;;;;;;13.16;100.00;102430.56;5091715;28;20032;-78
2022/08/29 06:09:04;;;;;;;8.80;3.50;;;;;;;13.30;100.00;102419.66;5091645;28;20024;-78
2022/08/29 06:11:31;;;;;;;7.80;3.25;;;;;;;13.48;100.00;102416.53;5073174;28;20360;-77
2022/08/29 06:13:58;;;;;;;6.30;3.50;;;;;;;13.66;100.00;102415.13;5091413;28;20043;-77
2022/08/29 06:16:25;;;;;;;9.73;2.90;;;;;;;13.79;100.00;102417.66;5091226;28;20178;-77
2022/08/29 06:18:51;;;;;;;5.45;3.38;;;;;;;13.91;100.00;102421.19;5091424;28;20055;-77
2022/08/29 06:21:17;;;;;;;4.95;2.90;;;;;;;13.99;100.00;102409.84;5091207;28;20047;-77
2022/08/29 06:23:43;;;;;;;9.13;3.38;;;;;;;14.08;100.00;102412.66;5093296;28;20384;-77
2022/08/29 06:26:10;;;;;;;10.15;3.00;;;;;;;14.17;100.00;102407.53;5095204;28;20492;-77
2022/08/29 06:28:40;;;;;;;6.85;3.25;;;;;;;14.26;100.00;102404.13;5076792;28;20051;-78
2022/08/29 06:31:13;;;;;;;7.57;3.53;;;;;;;14.35;100.00;102406.03;5095732;28;20050;-78
2022/08/29 06:33:39;;;;;;;6.13;3.42;;;;;;;14.48;100.00;102413.91;5095673;28;20289;-78
2022/08/29 06:36:05;;;;;;;8.20;3.20;;;;;;;14.58;100.00;102405.97;5076985;28;20051;-78
2022/08/29 06:38:32;;;;;;;4.82;3.05;;;;;;;14.64;100.00;102408.16;5094759;28;20036;-78
2022/08/29 06:41:05;;;;;;;7.75;3.38;;;;;;;14.69;100.00;102413.13;5095108;28;20024;-77
2022/08/29 06:43:31;;;;;;;8.70;3.35;;;;;;;14.73;100.00;102414.56;5094906;28;20035;-78
2022/08/29 06:45:56;;;;;;;10.45;3.30;;;;;;;14.80;100.00;102424.66;5095282;28;20028;-77
2022/08/29 06:48:22;;;;;;;8.82;2.80;;;;;;;14.92;100.00;102417.41;5095063;28;20028;-78
2022/08/29 06:50:47;;;;;;;12.63;3.22;;;;;;;15.04;100.00;102423.56;5077048;28;20028;-78
2022/08/29 06:53:13;;;;;;;5.03;2.50;;;;;;;15.14;98.15;102420.97;5077436;28;20036;-78
2022/08/29 06:55:38;;;;;;;6.07;2.80;;;;;;;15.30;95.36;102421.34;5094393;28;20119;-78
2022/08/29 06:58:05;;;;;;;7.22;2.55;;;;;;;15.54;94.31;102424.72;5094988;28;20063;-78
2022/08/29 07:00:30;;;;;;;7.78;2.65;;;;;;;15.80;91.92;102425.16;5094384;28;20047;-78
2022/08/29 07:02:56;;;;;;;5.25;2.22;;;;;;;16.10;90.04;102426.97;5076488;28;20472;-77
2022/08/29 07:05:23;;;;;;;9.30;2.95;;;;;;;16.37;90.09;102425.47;5094189;28;20032;-78
2022/08/29 07:07:50;;;;;;;10.00;2.47;;;;;;;16.56;88.48;102433.56;5094759;28;20024;-77
2022/08/29 07:10:16;;;;;;;7.20;2.60;;;;;;;16.62;79.52;102437.53;5094458;28;20113;-78
2022/08/29 07:12:41;;;;;;;7.65;2.83;;;;;;;16.73;82.70;102431.16;5094407;28;20043;-77
2022/08/29 07:15:07;;;;;;;10.30;2.53;;;;;;;16.82;80.89;102432.16;5076288;28;20032;-77
2022/08/29 07:17:32;;;;;;;7.95;2.80;;;;;;;16.95;83.08;102437.28;5093900;28;20101;-77
2022/08/29 07:19:58;;;;;;;4.90;2.28;;;;;;;17.08;76.69;102436.00;5094002;28;20044;-77
2022/08/29 07:22:25;;;;;;;7.47;2.97;;;;;;;17.29;73.31;102443.06;5076009;28;20062;-78
2022/08/29 07:24:51;;;;;;;8.10;2.90;;;;;;;17.41;70.09;102430.28;5076052;28;20446;-77
2022/08/29 07:27:17;;;;;;;5.15;2.80;;;;;;;17.45;69.76;102424.47;5076464;28;20032;-78
2022/08/29 07:29:42;;;;;;;8.73;3.00;;;;;;;17.43;72.23;102421.06;5093876;28;20039;-77
2022/08/29 07:32:07;;;;;;;6.43;3.50;;;;;;;17.42;73.94;102422.06;5094132;28;20028;-78
2022/08/29 07:34:33;;;;;;;5.47;2.63;;;;;;;17.36;70.56;102425.34;5093073;28;20113;-77
2022/08/29 07:36:58;;;;;;;8.25;3.10;;;;;;;17.33;71.12;102432.84;5093696;28;20024;-77
2022/08/29 07:39:24;;;;;;;8.88;3.20;;;;;;;17.31;72.88;102430.28;5093474;28;20165;-78
2022/08/29 07:41:50;;;;;;;11.05;3.20;;;;;;;17.36;75.19;102430.72;5093909;28;20032;-78
2022/08/29 07:44:17;;;;;;;6.03;2.90;;;;;;;17.48;76.48;102425.16;5075892;28;20034;-77
2022/08/29 07:46:43;;;;;;;7.45;2.70;;;;;;;17.57;71.90;102435.03;5093975;28;20176;-77
2022/08/29 07:49:10;;;;;;;7.13;2.90;;;;;;;17.63;72.86;102427.25;5093861;28;20109;-77
2022/08/29 07:51:37;;;;;;;8.13;3.13;;;;;;;17.74;71.38;102428.06;5093338;28;20055;-77
2022/08/29 07:54:03;;;;;;;12.38;3.00;;;;;;;17.82;70.13;102427.31;5093554;28;20368;-78
2022/08/29 07:56:32;;;;;;;8.05;3.00;;;;;;;17.93;73.26;102430.69;5093533;28;20028;-78
2022/08/29 07:58:58;;;;;;;6.93;3.20;;;;;;;18.13;72.29;102422.50;5075517;28;20073;-77
2022/08/29 08:01:25;;;;;;;5.22;2.80;;;;;;;18.31;67.84;102417.97;5093784;28;20070;-80
2022/08/29 08:03:51;;;;;;;8.25;3.00;;;;;;;18.40;67.77;102410.84;5058663;28;20036;-77
2022/08/29 08:06:20;;;;;;;5.97;2.92;;;;;;;18.55;68.23;102415.72;5093385;28;20034;-77
2022/08/29 08:08:45;;;;;;;5.70;2.75;;;;;;;18.65;66.38;102406.53;5093500;28;20036;-77
2022/08/29 08:11:11;;;;;;;6.00;2.67;;;;;;;18.68;63.63;102411.63;5093491;28;20392;-77
2022/08/29 08:13:37;;;;;;;7.30;2.78;;;;;;;18.82;64.56;102417.47;5093041;28;20028;-77
2022/08/29 08:16:08;;;;;;;6.18;2.97;;;;;;;19.17;63.89;102422.00;5093234;28;20067;-77
2022/08/29 08:18:34;;;;;;;;;;;;;;;19.59;65.18;102422.25;5074704;28;20044;-77
2022/08/29 08:21:00;;;;;;;7.45;2.80;;;;;;;20.26;61.49;102425.94;5075175;28;19916;-77
2022/08/29 08:23:25;;;;;;;12.88;3.10;;;;;;;21.05;58.63;102427.38;5093485;28;20104;-76
2022/08/29 08:25:51;;;;;;;5.97;2.83;;;;;;;21.17;53.95;102431.44;5092757;28;20051;-76
2022/08/29 08:28:17;;;;;;;6.93;3.00;;;;;;;20.87;54.13;102423.00;5093105;28;20088;-77
2022/08/29 08:30:43;;;;;;;9.80;3.05;;;;;;;20.66;58.36;102431.63;5093104;28;20040;-77
2022/08/29 08:33:08;;;;;;;6.28;2.67;;;;;;;20.50;56.76;102424.28;5093055;28;20500;-77
2022/08/29 08:35:34;;;;;;;7.00;2.60;;;;;;;20.57;57.08;102424.47;5092492;28;20343;-77
2022/08/29 08:38:03;;;;;;;6.55;3.15;;;;;;;20.63;58.32;102429.22;5093053;28;20028;-77
2022/08/29 08:40:30;;;;;;;7.95;2.72;;;;;;;20.52;55.79;102418.72;5093138;28;20032;-78
2022/08/29 08:43:02;;;;;;;11.15;3.17;;;;;;;20.31;56.93;102424.59;5093053;28;20043;-76
2022/08/29 08:45:40;;;;;;;4.97;2.42;;;;;;;20.00;56.29;102425.16;5074773;28;20024;-76
2022/08/29 08:48:19;;;;;;;6.43;2.63;;;;;;;19.81;57.00;102437.06;5092438;28;20094;-77
2022/08/29 08:50:58;;;;;;;7.65;2.60;;;;;;;19.73;59.57;102441.41;5092438;28;20036;-76
2022/08/29 08:53:38;;;;;;;7.68;2.78;;;;;;;19.87;59.92;102439.97;5092814;28;20032;-77
2022/08/29 08:56:43;;;;;;;6.32;3.00;;;;;;;20.17;57.40;102443.13;5092502;28;20036;-77
2022/08/29 08:59:15;;;;;;;4.65;2.72;;;;;;;20.42;55.84;102435.94;5092455;28;20032;-77
2022/08/29 09:01:45;;;;;;;7.20;2.35;;;;;;;20.53;55.59;102431.25;5092212;28;20379;-78
2022/08/29 09:04:32;;;;;;;4.75;2.72;;;;;;;20.53;58.02;102442.06;5092662;28;20067;-77
2022/08/29 09:07:03;;;;;;;4.25;2.60;;;;;;;20.35;53.56;102440.31;5092338;28;20035;-77
2022/08/29 09:09:52;;;;;;;11.00;3.10;;;;;;;20.15;56.85;102441.59;5074647;28;20028;-78
2022/08/29 09:12:40;;;;;;;6.50;2.83;;;;;;;19.92;56.32;102439.50;5092536;28;20110;-77
2022/08/29 09:15:18;;;;;;;8.73;2.88;;;;;;;20.11;57.22;102442.94;5092084;28;20488;-77
2022/08/29 09:18:04;;;;;;;14.73;5.13;;;;;;;20.32;57.24;102440.66;5091759;28;20055;-77
2022/08/29 09:20:33;;;;;;;7.18;2.80;;;;;;;20.57;55.87;102441.56;5092144;28;20028;-77
2022/08/29 09:23:23;;;;;;;7.95;2.83;;;;;;;20.70;55.92;102443.78;5092060;28;20024;-77
2022/08/29 09:25:49;;;;;;;9.75;2.80;;;;;;;20.62;56.05;102449.16;5091639;28;20024;-77
2022/08/29 09:28:15;;;;;;;9.73;2.85;;;;;;;20.53;54.55;102451.00;5091896;28;20071;-77
2022/08/29 09:30:43;;;;;;;6.72;2.53;;;;;;;20.38;54.44;102447.25;5091559;28;20072;-77
2022/08/29 09:33:14;;;;;;;5.60;2.42;;;;;;;19.90;50.83;102433.41;5091873;28;20036;-77
2022/08/29 09:35:44;;;;;;;6.22;2.85;;;;;;;20.07;55.75;102442.41;5091856;28;20024;-78
2022/08/29 09:38:15;;;;;;;3.95;2.40;;;;;;;20.21;57.40;102433.69;5091871;28;20052;-78
2022/08/29 09:40:45;;;;;;;4.10;2.38;;;;;;;20.71;53.79;102439.22;5091589;28;20027;-77
2022/08/29 09:43:20;;;;;;;6.47;2.35;;;;;;;21.42;53.36;102445.78;5091871;28;20388;-77
2022/08/29 09:46:10;;;;;;;4.40;2.42;;;;;;;21.75;50.65;102442.16;5091563;28;20024;-77
2022/08/29 09:48:39;;;;;;;5.18;2.58;;;;;;;21.46;48.31;102443.56;5091496;28;20043;-77
2022/08/29 09:51:12;;;;;;;5.65;2.53;;;;;;;21.10;50.83;102446.66;5091792;28;20104;-78
2022/08/29 09:53:38;;;;;;;6.10;2.55;;;;;;;20.57;52.37;102441.56;5091667;28;20056;-82
2022/08/29 09:56:10;;;;;;;8.40;2.75;;;;;;;20.06;50.45;102438.88;5091717;28;20116;-78
2022/08/29 09:58:39;;;;;;;10.45;3.00;;;;;;;19.78;55.04;102421.19;5093343;28;20051;-77
2022/08/29 10:01:18;;;;;;;10.65;2.78;;;;;;;19.62;57.65;102428.19;5095893;28;20032;-78
2022/08/29 10:04:02;;;;;;;16.67;2.75;;;;;;;19.42;59.12;102418.59;5095931;28;20488;-78
2022/08/29 10:06:34;;;;;;;10.18;2.80;;;;;;;19.42;60.66;102432.09;5095954;28;20028;-78
2022/08/29 10:09:25;;;;;;;7.20;2.72;;;;;;;19.71;60.78;102435.31;5077570;28;20475;-78
2022/08/29 10:12:11;;;;;;;4.47;2.47;;;;;;;20.12;60.69;102442.75;5095428;28;20032;-77
2022/08/29 10:14:47;;;;;;;9.25;2.80;;;;;;;20.24;57.50;102436.06;5095963;28;20031;-78
2022/08/29 10:20:20;;;;;;;7.25;2.70;;;;;;;19.77;58.21;102441.94;5095797;28;20043;-77
2022/08/29 10:23:00;;;;;;;5.35;2.30;;;;;;;19.49;58.02;102439.41;5095462;28;20036;-77
2022/08/29 10:25:36;;;;;;;7.53;1.90;;;;;;;19.40;61.13;102444.91;5095926;28;20114;-78
2022/08/29 10:28:14;;;;;;;3.90;2.08;;;;;;;19.50;61.69;102442.97;5095335;28;20042;-77
2022/08/29 10:31:05;;;;;;;4.57;2.20;;;;;;;19.72;60.45;102436.16;5095882;28;20357;-77
2022/08/29 10:33:54;;;;;;;8.10;2.60;;;;;;;19.96;58.83;102429.19;5095568;28;20039;-78
2022/08/29 10:36:31;;;;;;;6.78;2.92;;;;;;;20.02;55.85;102434.81;5095510;28;20051;-77
2022/08/29 10:39:13;;;;;;;8.85;2.72;;;;;;;19.88;57.78;102433.59;5095095;28;20127;-77
2022/08/29 10:41:51;;;;;;;4.90;2.38;;;;;;;19.73;59.72;102438.72;5095315;28;20032;-77
2022/08/29 10:44:44;;;;;;;7.53;2.55;;;;;;;19.68;59.85;102432.94;5095346;28;20020;-77
2022/08/29 10:47:31;;;;;;;7.57;2.47;;;;;;;19.63;61.09;102432.59;5095255;28;20074;-77
2022/08/29 10:50:26;;;;;;;8.07;2.88;;;;;;;19.65;62.45;102429.72;5094663;28;20028;-77
2022/08/29 10:53:21;;;;;;;10.30;3.10;;;;;;;19.67;61.49;102428.53;5094572;28;20024;-77
2022/08/29 10:55:52;;;;;;;7.68;2.70;;;;;;;19.67;60.37;102422.28;5093812;28;20506;-78
2022/08/29 10:58:39;;;;;;;4.68;2.40;;;;;;;19.90;60.86;102418.06;5095125;28;20028;-78
2022/08/29 11:01:16;;;;;;;7.20;2.28;;;;;;;20.12;59.90;102413.03;5094516;28;20028;-78
2022/08/29 11:04:21;;;;;;;4.93;2.53;;;;;;;20.43;59.82;102415.16;5094737;28;20028;-77
2022/08/29 11:06:49;;;;;;;12.13;2.50;;;;;;;20.82;59.14;102416.41;5090843;28;20044;-83
2022/08/29 11:09:19;;;;;;;7.45;2.55;;;;;;;21.21;56.54;102415.69;5094758;28;20490;-77
2022/08/29 11:11:59;;;;;;;6.78;2.47;;;;;;;21.64;54.88;102414.44;5094831;28;20028;-77
2022/08/29 11:14:34;;;;;;;8.43;2.45;;;;;;;22.38;53.83;102407.00;5094704;28;20166;-76
2022/08/29 11:17:03;;;;;;;6.05;2.55;;;;;;;23.28;52.15;102408.16;5094406;28;20460;-76
2022/08/29 11:19:58;;;;;;;7.78;3.05;;;;;;;23.96;49.78;102408.03;5094725;28;20032;-77
2022/08/29 11:22:34;;;;;;;9.38;2.78;;;;;;;23.82;45.63;102405.13;5080128;28;20408;-75
2022/08/29 11:25:06;;;;;;;8.88;2.70;;;;;;;23.64;47.21;102405.50;5076321;28;20078;-76
2022/08/29 11:27:56;;;;;;;6.70;2.50;;;;;;;23.21;48.12;102397.16;5077328;28;20036;-77
2022/08/29 11:30:40;;;;;;;6.40;2.47;;;;;;;23.26;49.88;102394.75;5094541;28;20020;-77
2022/08/29 11:33:23;;;;;;;6.97;3.08;;;;;;;23.16;49.94;102399.59;5093784;28;20032;-77
2022/08/29 11:36:07;;;;;;;4.18;2.58;;;;;;;23.51;49.82;102397.19;5094465;28;20039;-77